TimeCST,TemperatureF,Dew PointF,Humidity,Sea Level PressureIn,VisibilityMPH,Wind Direction,Wind SpeedMPH,Gust SpeedMPH,PrecipitationIn,Events,Conditions,WindDirDegrees,DateUTC
12:51 AM,39.9,36.0,86,30.38,10.0,Calm,Calm,-,N/A,,Clear,0,2012-11-28 06:51:00
1:51 AM,39.0,36.0,89,30.37,10.0,Calm,Calm,-,N/A,,Clear,0,2012-11-28 07:51:00
2:51 AM,39.0,36.0,89,30.37,10.0,Calm,Calm,-,N/A,,Clear,0,2012-11-28 08:51:00
3:51 AM,37.9,35.1,89,30.38,10.0,Calm,Calm,-,N/A,,Clear,0,2012-11-28 09:51:00
4:51 AM,37.0,35.1,93,30.39,10.0,Calm,Calm,-,N/A,,Clear,0,2012-11-28 10:51:00
5:51 AM,39.0,36.0,89,30.41,10.0,NW,3.5,-,N/A,,Clear,320,2012-11-28 11:51:00
6:51 AM,37.9,36.0,93,30.44,9.0,Calm,Calm,-,N/A,,Clear,0,2012-11-28 12:51:00
7:51 AM,37.9,36.0,93,30.45,6.0,Calm,Calm,-,N/A,,Clear,0,2012-11-28 13:51:00
8:51 AM,46.9,39.9,77,30.46,10.0,Calm,Calm,-,N/A,,Clear,0,2012-11-28 14:51:00
9:51 AM,52.0,39.9,63,30.47,10.0,East,5.8,-,N/A,,Clear,100,2012-11-28 15:51:00
10:51 AM,55.9,42.1,60,30.46,10.0,Variable,4.6,-,N/A,,Clear,0,2012-11-28 16:51:00
11:51 AM,59.0,42.1,53,30.42,10.0,SE,4.6,-,N/A,,Clear,140,2012-11-28 17:51:00
12:51 PM,64.0,43.0,46,30.37,10.0,Variable,4.6,-,N/A,,Clear,0,2012-11-28 18:51:00
1:51 PM,66.0,42.1,42,30.34,10.0,Calm,Calm,-,N/A,,Clear,0,2012-11-28 19:51:00
2:51 PM,68.0,42.1,39,30.30,10.0,Variable,3.5,-,N/A,,Clear,0,2012-11-28 20:51:00
3:51 PM,68.0,39.9,36,30.29,10.0,South,5.8,-,N/A,,Clear,180,2012-11-28 21:51:00
4:51 PM,66.0,39.0,37,30.29,10.0,SE,5.8,-,N/A,,Clear,130,2012-11-28 22:51:00
5:51 PM,63.0,37.9,40,30.30,10.0,ESE,3.5,-,N/A,,Clear,120,2012-11-28 23:51:00
6:51 PM,61.0,37.9,42,30.31,10.0,ESE,4.6,-,N/A,,Clear,120,2012-11-29 00:51:00
7:51 PM,57.9,37.9,47,30.33,10.0,ESE,3.5,-,N/A,,Clear,120,2012-11-29 01:51:00
8:51 PM,54.0,37.9,55,30.32,10.0,Calm,Calm,-,N/A,,Clear,0,2012-11-29 02:51:00
9:51 PM,52.0,39.0,61,30.32,10.0,Calm,Calm,-,N/A,,Clear,0,2012-11-29 03:51:00
10:51 PM,50.0,39.0,66,30.31,10.0,Calm,Calm,-,N/A,,Clear,0,2012-11-29 04:51:00
11:51 PM,46.9,39.0,74,30.31,10.0,Calm,Calm,-,N/A,,Clear,0,2012-11-29 05:51:00